sensor_id;sensor_type;location;lat;lon;timestamp;P1;durP1;ratioP1;P2;durP2;ratioP2
59145;SDS011;44928;53.074;6.646;2023-07-31T00:01:46;6.65;;;2.30;;
59145;SDS011;44928;53.074;6.646;2023-07-31T00:04:12;8.40;;;2.72;;
59145;SDS011;44928;53.074;6.646;2023-07-31T00:06:38;6.55;;;2.50;;
59145;SDS011;44928;53.074;6.646;2023-07-31T00:09:04;6.47;;;2.38;;
59145;SDS011;44928;53.074;6.646;2023-07-31T00:11:30;8.40;;;2.30;;
59145;SDS011;44928;53.074;6.646;2023-07-31T00:13:56;7.22;;;2.45;;
59145;SDS011;44928;53.074;6.646;2023-07-31T00:16:21;5.70;;;2.00;;
59145;SDS011;44928;53.074;6.646;2023-07-31T00:18:47;6.15;;;2.45;;
59145;SDS011;44928;53.074;6.646;2023-07-31T00:21:13;6.88;;;2.40;;
59145;SDS011;44928;53.074;6.646;2023-07-31T00:23:39;6.65;;;2.65;;
59145;SDS011;44928;53.074;6.646;2023-07-31T00:26:05;6.85;;;2.90;;
59145;SDS011;44928;53.074;6.646;2023-07-31T00:28:30;8.20;;;2.90;;
59145;SDS011;44928;53.074;6.646;2023-07-31T00:30:56;6.57;;;2.67;;
59145;SDS011;44928;53.074;6.646;2023-07-31T00:33:22;7.28;;;2.95;;
59145;SDS011;44928;53.074;6.646;2023-07-31T00:35:48;6.88;;;2.60;;
59145;SDS011;44928;53.074;6.646;2023-07-31T00:38:14;9.00;;;3.03;;
59145;SDS011;44928;53.074;6.646;2023-07-31T00:40:40;7.63;;;2.53;;
59145;SDS011;44928;53.074;6.646;2023-07-31T00:43:05;8.55;;;2.95;;
59145;SDS011;44928;53.074;6.646;2023-07-31T00:45:31;6.30;;;2.63;;
59145;SDS011;44928;53.074;6.646;2023-07-31T00:47:58;8.40;;;2.85;;
59145;SDS011;44928;53.074;6.646;2023-07-31T00:50:24;6.15;;;2.60;;
59145;SDS011;44928;53.074;6.646;2023-07-31T00:52:50;7.68;;;2.78;;
59145;SDS011;44928;53.074;6.646;2023-07-31T00:55:17;10.13;;;3.00;;
59145;SDS011;44928;53.074;6.646;2023-07-31T00:57:43;6.15;;;2.25;;
59145;SDS011;44928;53.074;6.646;2023-07-31T01:00:10;6.45;;;2.60;;
59145;SDS011;44928;53.074;6.646;2023-07-31T01:02:37;6.28;;;2.35;;
59145;SDS011;44928;53.074;6.646;2023-07-31T01:05:03;7.05;;;2.33;;
59145;SDS011;44928;53.074;6.646;2023-07-31T01:07:49;6.00;;;2.50;;
59145;SDS011;44928;53.074;6.646;2023-07-31T01:10:34;6.47;;;2.45;;
59145;SDS011;44928;53.074;6.646;2023-07-31T01:13:04;6.60;;;2.40;;
59145;SDS011;44928;53.074;6.646;2023-07-31T01:15:31;7.38;;;2.30;;
59145;SDS011;44928;53.074;6.646;2023-07-31T01:17:56;6.07;;;2.13;;
59145;SDS011;44928;53.074;6.646;2023-07-31T01:20:23;6.68;;;2.28;;
59145;SDS011;44928;53.074;6.646;2023-07-31T01:28:24;5.78;;;1.80;;
59145;SDS011;44928;53.074;6.646;2023-07-31T01:30:55;5.90;;;2.13;;
59145;SDS011;44928;53.074;6.646;2023-07-31T01:33:25;4.23;;;1.80;;
59145;SDS011;44928;53.074;6.646;2023-07-31T01:35:52;5.45;;;1.70;;
59145;SDS011;44928;53.074;6.646;2023-07-31T01:38:21;5.10;;;1.83;;
59145;SDS011;44928;53.074;6.646;2023-07-31T01:40:51;3.78;;;1.20;;
59145;SDS011;44928;53.074;6.646;2023-07-31T01:43:18;6.00;;;1.40;;
59145;SDS011;44928;53.074;6.646;2023-07-31T01:45:44;4.28;;;1.20;;
59145;SDS011;44928;53.074;6.646;2023-07-31T01:48:10;4.78;;;1.33;;
59145;SDS011;44928;53.074;6.646;2023-07-31T01:50:36;2.40;;;0.98;;
59145;SDS011;44928;53.074;6.646;2023-07-31T01:53:02;2.85;;;0.95;;
59145;SDS011;44928;53.074;6.646;2023-07-31T01:55:27;4.13;;;1.10;;
59145;SDS011;44928;53.074;6.646;2023-07-31T01:57:54;3.45;;;1.10;;
59145;SDS011;44928;53.074;6.646;2023-07-31T02:00:19;2.58;;;0.90;;
59145;SDS011;44928;53.074;6.646;2023-07-31T02:02:45;4.50;;;0.90;;
59145;SDS011;44928;53.074;6.646;2023-07-31T02:05:11;1.95;;;0.80;;
59145;SDS011;44928;53.074;6.646;2023-07-31T02:07:37;1.65;;;0.82;;
59145;SDS011;44928;53.074;6.646;2023-07-31T02:10:03;1.95;;;0.80;;
59145;SDS011;44928;53.074;6.646;2023-07-31T02:12:29;1.17;;;0.60;;
59145;SDS011;44928;53.074;6.646;2023-07-31T02:14:57;1.55;;;0.50;;
59145;SDS011;44928;53.074;6.646;2023-07-31T02:17:23;1.92;;;0.80;;
59145;SDS011;44928;53.074;6.646;2023-07-31T02:19:48;1.63;;;0.68;;
59145;SDS011;44928;53.074;6.646;2023-07-31T02:22:14;2.42;;;0.75;;
59145;SDS011;44928;53.074;6.646;2023-07-31T02:24:40;2.95;;;0.77;;
59145;SDS011;44928;53.074;6.646;2023-07-31T02:27:06;2.42;;;0.70;;
59145;SDS011;44928;53.074;6.646;2023-07-31T02:29:32;1.23;;;0.50;;
59145;SDS011;44928;53.074;6.646;2023-07-31T02:31:58;3.88;;;1.20;;
59145;SDS011;44928;53.074;6.646;2023-07-31T02:34:23;3.05;;;1.00;;
59145;SDS011;44928;53.074;6.646;2023-07-31T02:36:49;2.35;;;0.68;;
59145;SDS011;44928;53.074;6.646;2023-07-31T02:39:15;2.72;;;0.80;;
59145;SDS011;44928;53.074;6.646;2023-07-31T02:41:41;1.50;;;0.70;;
59145;SDS011;44928;53.074;6.646;2023-07-31T02:44:07;2.15;;;0.70;;
59145;SDS011;44928;53.074;6.646;2023-07-31T02:46:33;2.83;;;0.80;;
59145;SDS011;44928;53.074;6.646;2023-07-31T02:48:59;3.60;;;0.93;;
59145;SDS011;44928;53.074;6.646;2023-07-31T02:51:25;4.50;;;1.15;;
59145;SDS011;44928;53.074;6.646;2023-07-31T02:53:51;2.63;;;0.80;;
59145;SDS011;44928;53.074;6.646;2023-07-31T02:56:16;3.03;;;0.95;;
59145;SDS011;44928;53.074;6.646;2023-07-31T02:58:42;2.72;;;1.05;;
59145;SDS011;44928;53.074;6.646;2023-07-31T03:01:08;4.57;;;1.10;;
59145;SDS011;44928;53.074;6.646;2023-07-31T03:03:34;2.10;;;0.80;;
59145;SDS011;44928;53.074;6.646;2023-07-31T03:06:00;6.38;;;0.90;;
59145;SDS011;44928;53.074;6.646;2023-07-31T03:08:25;3.85;;;0.90;;
59145;SDS011;44928;53.074;6.646;2023-07-31T03:10:51;5.53;;;0.95;;
59145;SDS011;44928;53.074;6.646;2023-07-31T03:13:17;3.08;;;0.80;;
59145;SDS011;44928;53.074;6.646;2023-07-31T03:15:43;3.40;;;0.80;;
59145;SDS011;44928;53.074;6.646;2023-07-31T03:18:09;1.60;;;0.70;;
59145;SDS011;44928;53.074;6.646;2023-07-31T03:20:34;2.17;;;0.70;;
59145;SDS011;44928;53.074;6.646;2023-07-31T03:23:00;2.00;;;0.75;;
59145;SDS011;44928;53.074;6.646;2023-07-31T03:25:26;2.40;;;0.70;;
59145;SDS011;44928;53.074;6.646;2023-07-31T03:27:52;2.40;;;0.68;;
59145;SDS011;44928;53.074;6.646;2023-07-31T03:30:18;1.67;;;0.80;;
59145;SDS011;44928;53.074;6.646;2023-07-31T03:32:43;1.80;;;0.70;;
59145;SDS011;44928;53.074;6.646;2023-07-31T03:35:09;4.57;;;0.80;;
59145;SDS011;44928;53.074;6.646;2023-07-31T03:37:35;1.38;;;0.60;;
59145;SDS011;44928;53.074;6.646;2023-07-31T03:40:01;2.80;;;0.90;;
59145;SDS011;44928;53.074;6.646;2023-07-31T03:42:27;2.22;;;0.77;;
59145;SDS011;44928;53.074;6.646;2023-07-31T03:44:53;2.30;;;0.52;;
59145;SDS011;44928;53.074;6.646;2023-07-31T03:47:19;3.78;;;0.75;;
59145;SDS011;44928;53.074;6.646;2023-07-31T03:49:44;1.73;;;0.70;;
59145;SDS011;44928;53.074;6.646;2023-07-31T03:52:10;2.38;;;0.60;;
59145;SDS011;44928;53.074;6.646;2023-07-31T03:54:36;2.50;;;0.60;;
59145;SDS011;44928;53.074;6.646;2023-07-31T03:57:02;2.55;;;0.60;;
59145;SDS011;44928;53.074;6.646;2023-07-31T03:59:28;1.65;;;0.50;;
59145;SDS011;44928;53.074;6.646;2023-07-31T04:01:54;3.25;;;0.68;;
59145;SDS011;44928;53.074;6.646;2023-07-31T04:04:20;1.45;;;0.50;;
59145;SDS011;44928;53.074;6.646;2023-07-31T04:06:46;0.90;;;0.50;;
59145;SDS011;44928;53.074;6.646;2023-07-31T04:09:12;1.60;;;0.40;;
59145;SDS011;44928;53.074;6.646;2023-07-31T04:11:38;3.75;;;0.60;;
59145;SDS011;44928;53.074;6.646;2023-07-31T04:14:04;1.27;;;0.50;;
59145;SDS011;44928;53.074;6.646;2023-07-31T04:16:30;3.10;;;0.65;;
59145;SDS011;44928;53.074;6.646;2023-07-31T04:18:56;1.80;;;0.60;;
59145;SDS011;44928;53.074;6.646;2023-07-31T04:21:22;1.83;;;0.68;;
59145;SDS011;44928;53.074;6.646;2023-07-31T04:23:47;1.38;;;0.60;;
59145;SDS011;44928;53.074;6.646;2023-07-31T04:26:13;1.70;;;0.50;;
59145;SDS011;44928;53.074;6.646;2023-07-31T04:28:39;3.03;;;0.57;;
59145;SDS011;44928;53.074;6.646;2023-07-31T04:31:05;2.10;;;0.75;;
59145;SDS011;44928;53.074;6.646;2023-07-31T04:33:31;2.65;;;0.80;;
59145;SDS011;44928;53.074;6.646;2023-07-31T04:35:57;3.55;;;1.00;;
59145;SDS011;44928;53.074;6.646;2023-07-31T04:38:23;3.47;;;0.73;;
59145;SDS011;44928;53.074;6.646;2023-07-31T04:40:49;2.92;;;1.02;;
59145;SDS011;44928;53.074;6.646;2023-07-31T04:43:15;3.10;;;0.80;;
59145;SDS011;44928;53.074;6.646;2023-07-31T04:45:47;2.63;;;0.98;;
59145;SDS011;44928;53.074;6.646;2023-07-31T04:48:13;4.85;;;0.80;;
59145;SDS011;44928;53.074;6.646;2023-07-31T04:50:40;2.45;;;0.80;;
59145;SDS011;44928;53.074;6.646;2023-07-31T04:53:06;2.92;;;0.80;;
59145;SDS011;44928;53.074;6.646;2023-07-31T04:55:31;2.28;;;0.70;;
59145;SDS011;44928;53.074;6.646;2023-07-31T04:57:58;2.45;;;0.77;;
59145;SDS011;44928;53.074;6.646;2023-07-31T05:00:24;3.30;;;1.13;;
59145;SDS011;44928;53.074;6.646;2023-07-31T05:02:50;3.13;;;0.80;;
59145;SDS011;44928;53.074;6.646;2023-07-31T05:05:16;2.33;;;0.80;;
59145;SDS011;44928;53.074;6.646;2023-07-31T05:07:42;3.05;;;1.00;;
59145;SDS011;44928;53.074;6.646;2023-07-31T05:10:08;3.35;;;0.80;;
59145;SDS011;44928;53.074;6.646;2023-07-31T05:12:34;3.67;;;1.00;;
59145;SDS011;44928;53.074;6.646;2023-07-31T05:14:59;6.22;;;1.10;;
59145;SDS011;44928;53.074;6.646;2023-07-31T05:17:25;3.10;;;0.80;;
59145;SDS011;44928;53.074;6.646;2023-07-31T05:19:51;1.88;;;0.80;;
59145;SDS011;44928;53.074;6.646;2023-07-31T05:22:17;3.20;;;1.00;;
59145;SDS011;44928;53.074;6.646;2023-07-31T05:24:43;4.25;;;0.90;;
59145;SDS011;44928;53.074;6.646;2023-07-31T05:27:08;2.53;;;0.82;;
59145;SDS011;44928;53.074;6.646;2023-07-31T05:29:35;3.72;;;1.15;;
59145;SDS011;44928;53.074;6.646;2023-07-31T05:32:00;4.63;;;1.08;;
59145;SDS011;44928;53.074;6.646;2023-07-31T05:34:26;3.95;;;1.20;;
59145;SDS011;44928;53.074;6.646;2023-07-31T05:36:52;4.47;;;1.20;;
59145;SDS011;44928;53.074;6.646;2023-07-31T05:39:18;6.07;;;1.10;;
59145;SDS011;44928;53.074;6.646;2023-07-31T05:41:45;4.47;;;1.30;;
59145;SDS011;44928;53.074;6.646;2023-07-31T05:44:11;4.60;;;1.45;;
59145;SDS011;44928;53.074;6.646;2023-07-31T05:46:37;4.50;;;1.30;;
59145;SDS011;44928;53.074;6.646;2023-07-31T05:49:02;6.53;;;1.58;;
59145;SDS011;44928;53.074;6.646;2023-07-31T05:51:28;6.15;;;1.73;;
59145;SDS011;44928;53.074;6.646;2023-07-31T05:53:54;7.10;;;1.77;;
59145;SDS011;44928;53.074;6.646;2023-07-31T05:56:20;5.85;;;1.75;;
59145;SDS011;44928;53.074;6.646;2023-07-31T05:58:46;7.47;;;2.33;;
59145;SDS011;44928;53.074;6.646;2023-07-31T06:01:12;7.95;;;2.35;;
59145;SDS011;44928;53.074;6.646;2023-07-31T06:03:38;9.27;;;2.22;;
59145;SDS011;44928;53.074;6.646;2023-07-31T06:06:04;8.25;;;2.47;;
59145;SDS011;44928;53.074;6.646;2023-07-31T06:08:30;12.48;;;3.30;;
59145;SDS011;44928;53.074;6.646;2023-07-31T06:10:56;9.45;;;3.13;;
59145;SDS011;44928;53.074;6.646;2023-07-31T06:13:22;14.43;;;3.90;;
59145;SDS011;44928;53.074;6.646;2023-07-31T06:15:48;14.48;;;4.40;;
59145;SDS011;44928;53.074;6.646;2023-07-31T06:18:13;15.75;;;4.72;;
59145;SDS011;44928;53.074;6.646;2023-07-31T06:20:39;17.48;;;5.85;;
59145;SDS011;44928;53.074;6.646;2023-07-31T06:23:05;18.95;;;6.28;;
59145;SDS011;44928;53.074;6.646;2023-07-31T06:25:31;20.58;;;6.70;;
59145;SDS011;44928;53.074;6.646;2023-07-31T06:27:57;23.27;;;6.80;;
59145;SDS011;44928;53.074;6.646;2023-07-31T06:30:23;20.45;;;6.07;;
59145;SDS011;44928;53.074;6.646;2023-07-31T06:32:49;20.35;;;6.38;;
59145;SDS011;44928;53.074;6.646;2023-07-31T06:35:14;24.75;;;6.78;;
59145;SDS011;44928;53.074;6.646;2023-07-31T06:37:40;22.73;;;6.90;;
59145;SDS011;44928;53.074;6.646;2023-07-31T06:40:09;21.85;;;6.45;;
59145;SDS011;44928;53.074;6.646;2023-07-31T06:42:35;19.23;;;6.28;;
59145;SDS011;44928;53.074;6.646;2023-07-31T06:45:01;21.65;;;6.35;;
59145;SDS011;44928;53.074;6.646;2023-07-31T06:47:27;21.38;;;6.55;;
59145;SDS011;44928;53.074;6.646;2023-07-31T06:49:53;16.33;;;6.40;;
59145;SDS011;44928;53.074;6.646;2023-07-31T06:52:19;21.17;;;6.40;;
59145;SDS011;44928;53.074;6.646;2023-07-31T06:54:59;17.15;;;6.38;;
59145;SDS011;44928;53.074;6.646;2023-07-31T06:57:27;19.50;;;6.20;;
59145;SDS011;44928;53.074;6.646;2023-07-31T06:59:53;24.20;;;6.45;;
59145;SDS011;44928;53.074;6.646;2023-07-31T07:02:19;18.58;;;5.95;;
59145;SDS011;44928;53.074;6.646;2023-07-31T07:04:44;17.77;;;5.97;;
59145;SDS011;44928;53.074;6.646;2023-07-31T07:07:10;18.83;;;5.60;;
59145;SDS011;44928;53.074;6.646;2023-07-31T07:09:36;20.52;;;6.68;;
59145;SDS011;44928;53.074;6.646;2023-07-31T07:12:02;18.33;;;5.40;;
59145;SDS011;44928;53.074;6.646;2023-07-31T07:14:28;18.02;;;5.47;;
59145;SDS011;44928;53.074;6.646;2023-07-31T07:16:54;19.02;;;6.40;;
59145;SDS011;44928;53.074;6.646;2023-07-31T07:19:19;17.48;;;5.75;;
59145;SDS011;44928;53.074;6.646;2023-07-31T07:21:45;17.00;;;5.57;;
59145;SDS011;44928;53.074;6.646;2023-07-31T07:24:11;17.50;;;5.63;;
59145;SDS011;44928;53.074;6.646;2023-07-31T07:26:37;15.00;;;5.15;;
59145;SDS011;44928;53.074;6.646;2023-07-31T07:29:03;17.88;;;5.30;;
59145;SDS011;44928;53.074;6.646;2023-07-31T07:31:28;18.67;;;5.70;;
59145;SDS011;44928;53.074;6.646;2023-07-31T07:33:54;14.75;;;4.97;;
59145;SDS011;44928;53.074;6.646;2023-07-31T07:36:20;14.07;;;3.67;;
59145;SDS011;44928;53.074;6.646;2023-07-31T07:38:46;11.70;;;3.80;;
59145;SDS011;44928;53.074;6.646;2023-07-31T07:41:12;13.48;;;4.13;;
59145;SDS011;44928;53.074;6.646;2023-07-31T07:43:38;10.35;;;3.53;;
59145;SDS011;44928;53.074;6.646;2023-07-31T07:46:04;8.93;;;3.28;;
59145;SDS011;44928;53.074;6.646;2023-07-31T07:48:29;7.40;;;2.78;;
59145;SDS011;44928;53.074;6.646;2023-07-31T07:50:55;8.80;;;3.22;;
59145;SDS011;44928;53.074;6.646;2023-07-31T07:53:21;10.55;;;3.08;;
59145;SDS011;44928;53.074;6.646;2023-07-31T07:55:47;8.55;;;3.00;;
59145;SDS011;44928;53.074;6.646;2023-07-31T07:58:12;8.98;;;2.58;;
59145;SDS011;44928;53.074;6.646;2023-07-31T08:00:38;8.45;;;2.50;;
59145;SDS011;44928;53.074;6.646;2023-07-31T08:03:04;7.50;;;2.10;;
59145;SDS011;44928;53.074;6.646;2023-07-31T08:05:31;6.75;;;2.33;;
59145;SDS011;44928;53.074;6.646;2023-07-31T08:07:59;8.10;;;2.35;;
59145;SDS011;44928;53.074;6.646;2023-07-31T08:10:25;7.00;;;2.35;;
59145;SDS011;44928;53.074;6.646;2023-07-31T08:12:51;7.55;;;2.30;;
59145;SDS011;44928;53.074;6.646;2023-07-31T08:15:16;7.32;;;1.90;;
59145;SDS011;44928;53.074;6.646;2023-07-31T08:17:42;10.52;;;2.90;;
59145;SDS011;44928;53.074;6.646;2023-07-31T08:20:08;6.47;;;2.10;;
59145;SDS011;44928;53.074;6.646;2023-07-31T08:22:34;7.65;;;2.40;;
59145;SDS011;44928;53.074;6.646;2023-07-31T08:25:00;7.38;;;2.08;;
59145;SDS011;44928;53.074;6.646;2023-07-31T08:27:26;6.32;;;1.98;;
59145;SDS011;44928;53.074;6.646;2023-07-31T08:29:52;7.50;;;2.08;;
59145;SDS011;44928;53.074;6.646;2023-07-31T08:32:18;7.13;;;2.13;;
59145;SDS011;44928;53.074;6.646;2023-07-31T08:34:44;5.72;;;1.90;;
59145;SDS011;44928;53.074;6.646;2023-07-31T08:37:12;4.93;;;1.67;;
59145;SDS011;44928;53.074;6.646;2023-07-31T08:39:38;5.30;;;1.60;;
59145;SDS011;44928;53.074;6.646;2023-07-31T08:42:07;3.92;;;1.23;;
59145;SDS011;44928;53.074;6.646;2023-07-31T08:44:34;6.07;;;1.42;;
59145;SDS011;44928;53.074;6.646;2023-07-31T08:47:00;4.65;;;1.40;;
59145;SDS011;44928;53.074;6.646;2023-07-31T08:49:27;4.53;;;1.30;;
59145;SDS011;44928;53.074;6.646;2023-07-31T08:51:54;5.15;;;1.40;;
59145;SDS011;44928;53.074;6.646;2023-07-31T08:54:23;5.93;;;1.65;;
59145;SDS011;44928;53.074;6.646;2023-07-31T08:56:55;4.18;;;1.30;;
59145;SDS011;44928;53.074;6.646;2023-07-31T08:59:23;3.97;;;1.15;;
59145;SDS011;44928;53.074;6.646;2023-07-31T09:01:49;4.95;;;1.73;;
59145;SDS011;44928;53.074;6.646;2023-07-31T09:04:17;4.57;;;1.52;;
59145;SDS011;44928;53.074;6.646;2023-07-31T09:06:46;4.72;;;1.90;;
59145;SDS011;44928;53.074;6.646;2023-07-31T09:09:13;4.45;;;1.30;;
59145;SDS011;44928;53.074;6.646;2023-07-31T09:11:40;4.72;;;1.20;;
59145;SDS011;44928;53.074;6.646;2023-07-31T09:14:07;4.22;;;1.38;;
59145;SDS011;44928;53.074;6.646;2023-07-31T09:16:34;4.95;;;1.27;;
59145;SDS011;44928;53.074;6.646;2023-07-31T09:19:00;3.58;;;1.15;;
59145;SDS011;44928;53.074;6.646;2023-07-31T09:21:30;7.43;;;1.80;;
59145;SDS011;44928;53.074;6.646;2023-07-31T09:23:56;3.90;;;1.40;;
59145;SDS011;44928;53.074;6.646;2023-07-31T09:26:32;3.33;;;1.25;;
59145;SDS011;44928;53.074;6.646;2023-07-31T09:29:00;3.58;;;0.85;;
59145;SDS011;44928;53.074;6.646;2023-07-31T09:31:59;2.85;;;1.00;;
59145;SDS011;44928;53.074;6.646;2023-07-31T09:34:19;3.08;;;1.02;;
59145;SDS011;44928;53.074;6.646;2023-07-31T09:36:46;6.22;;;2.58;;
59145;SDS011;44928;53.074;6.646;2023-07-31T09:39:15;3.92;;;1.20;;
59145;SDS011;44928;53.074;6.646;2023-07-31T09:41:47;2.72;;;1.20;;
59145;SDS011;44928;53.074;6.646;2023-07-31T09:44:19;5.97;;;1.50;;
59145;SDS011;44928;53.074;6.646;2023-07-31T09:46:46;2.67;;;1.00;;
59145;SDS011;44928;53.074;6.646;2023-07-31T09:49:14;3.60;;;1.40;;
59145;SDS011;44928;53.074;6.646;2023-07-31T09:51:41;2.78;;;0.98;;
59145;SDS011;44928;53.074;6.646;2023-07-31T09:56:41;1.20;;;0.50;;
59145;SDS011;44928;53.074;6.646;2023-07-31T09:59:10;0.95;;;0.55;;
59145;SDS011;44928;53.074;6.646;2023-07-31T10:01:44;1.38;;;0.70;;
59145;SDS011;44928;53.074;6.646;2023-07-31T10:04:12;14.90;;;9.52;;
59145;SDS011;44928;53.074;6.646;2023-07-31T10:06:41;9.95;;;4.55;;
59145;SDS011;44928;53.074;6.646;2023-07-31T10:09:09;2.28;;;0.70;;
59145;SDS011;44928;53.074;6.646;2023-07-31T10:11:46;1.55;;;0.73;;
59145;SDS011;44928;53.074;6.646;2023-07-31T10:14:20;2.10;;;1.00;;
59145;SDS011;44928;53.074;6.646;2023-07-31T10:16:47;3.17;;;0.93;;
59145;SDS011;44928;53.074;6.646;2023-07-31T10:19:13;1.75;;;0.60;;
59145;SDS011;44928;53.074;6.646;2023-07-31T10:21:39;2.05;;;0.80;;
59145;SDS011;44928;53.074;6.646;2023-07-31T10:24:07;1.45;;;0.60;;
59145;SDS011;44928;53.074;6.646;2023-07-31T10:26:34;3.22;;;0.77;;
59145;SDS011;44928;53.074;6.646;2023-07-31T10:29:02;4.20;;;1.10;;
59145;SDS011;44928;53.074;6.646;2023-07-31T10:31:29;1.67;;;0.70;;
59145;SDS011;44928;53.074;6.646;2023-07-31T10:33:56;1.45;;;0.88;;
59145;SDS011;44928;53.074;6.646;2023-07-31T10:36:24;2.97;;;1.20;;
59145;SDS011;44928;53.074;6.646;2023-07-31T10:38:51;2.58;;;0.70;;
59145;SDS011;44928;53.074;6.646;2023-07-31T10:41:16;1.73;;;0.70;;
59145;SDS011;44928;53.074;6.646;2023-07-31T10:43:43;1.15;;;0.60;;
59145;SDS011;44928;53.074;6.646;2023-07-31T10:46:11;1.35;;;0.80;;
59145;SDS011;44928;53.074;6.646;2023-07-31T10:48:39;2.58;;;0.70;;
59145;SDS011;44928;53.074;6.646;2023-07-31T10:51:10;4.22;;;1.10;;
59145;SDS011;44928;53.074;6.646;2023-07-31T10:53:41;2.45;;;0.90;;
59145;SDS011;44928;53.074;6.646;2023-07-31T10:56:08;2.78;;;0.80;;
59145;SDS011;44928;53.074;6.646;2023-07-31T10:58:35;1.92;;;0.50;;
59145;SDS011;44928;53.074;6.646;2023-07-31T11:01:02;1.15;;;0.57;;
59145;SDS011;44928;53.074;6.646;2023-07-31T11:03:48;2.85;;;0.80;;
59145;SDS011;44928;53.074;6.646;2023-07-31T11:06:19;2.60;;;0.63;;
59145;SDS011;44928;53.074;6.646;2023-07-31T11:08:49;3.22;;;0.70;;
59145;SDS011;44928;53.074;6.646;2023-07-31T11:11:16;3.17;;;0.70;;
59145;SDS011;44928;53.074;6.646;2023-07-31T11:13:47;1.42;;;0.60;;
59145;SDS011;44928;53.074;6.646;2023-07-31T11:16:18;2.60;;;0.50;;
59145;SDS011;44928;53.074;6.646;2023-07-31T11:18:46;1.38;;;0.40;;
59145;SDS011;44928;53.074;6.646;2023-07-31T11:21:14;0.77;;;0.30;;
59145;SDS011;44928;53.074;6.646;2023-07-31T11:23:45;2.30;;;0.60;;
59145;SDS011;44928;53.074;6.646;2023-07-31T11:26:56;2.38;;;0.47;;
59145;SDS011;44928;53.074;6.646;2023-07-31T11:29:17;1.45;;;0.43;;
59145;SDS011;44928;53.074;6.646;2023-07-31T11:31:44;3.03;;;0.43;;
59145;SDS011;44928;53.074;6.646;2023-07-31T11:34:10;2.38;;;0.52;;
59145;SDS011;44928;53.074;6.646;2023-07-31T11:36:36;2.15;;;0.40;;
59145;SDS011;44928;53.074;6.646;2023-07-31T11:39:05;1.85;;;0.20;;
59145;SDS011;44928;53.074;6.646;2023-07-31T11:41:35;1.13;;;0.40;;
59145;SDS011;44928;53.074;6.646;2023-07-31T11:44:01;3.13;;;0.40;;
59145;SDS011;44928;53.074;6.646;2023-07-31T11:46:28;2.40;;;0.40;;
59145;SDS011;44928;53.074;6.646;2023-07-31T11:48:59;0.45;;;0.28;;
59145;SDS011;44928;53.074;6.646;2023-07-31T11:51:25;1.05;;;0.30;;
59145;SDS011;44928;53.074;6.646;2023-07-31T11:53:55;0.88;;;0.38;;
59145;SDS011;44928;53.074;6.646;2023-07-31T11:56:23;1.48;;;0.50;;
59145;SDS011;44928;53.074;6.646;2023-07-31T11:58:55;0.85;;;0.40;;
59145;SDS011;44928;53.074;6.646;2023-07-31T12:01:24;2.58;;;0.70;;
59145;SDS011;44928;53.074;6.646;2023-07-31T12:03:52;1.60;;;0.55;;
59145;SDS011;44928;53.074;6.646;2023-07-31T12:06:22;0.93;;;0.50;;
59145;SDS011;44928;53.074;6.646;2023-07-31T12:09:03;2.33;;;0.70;;
59145;SDS011;44928;53.074;6.646;2023-07-31T12:11:30;3.50;;;0.77;;
59145;SDS011;44928;53.074;6.646;2023-07-31T12:13:56;2.53;;;0.70;;
59145;SDS011;44928;53.074;6.646;2023-07-31T12:16:25;2.05;;;0.75;;
59145;SDS011;44928;53.074;6.646;2023-07-31T12:18:51;2.17;;;0.70;;
59145;SDS011;44928;53.074;6.646;2023-07-31T12:21:18;3.65;;;1.10;;
59145;SDS011;44928;53.074;6.646;2023-07-31T12:23:45;1.65;;;0.73;;
59145;SDS011;44928;53.074;6.646;2023-07-31T12:28:44;3.38;;;1.05;;
59145;SDS011;44928;53.074;6.646;2023-07-31T12:31:12;1.17;;;0.70;;
59145;SDS011;44928;53.074;6.646;2023-07-31T12:33:46;2.53;;;0.73;;
59145;SDS011;44928;53.074;6.646;2023-07-31T12:36:15;6.13;;;0.90;;
59145;SDS011;44928;53.074;6.646;2023-07-31T12:38:43;3.42;;;0.80;;
59145;SDS011;44928;53.074;6.646;2023-07-31T12:41:09;3.15;;;1.00;;
59145;SDS011;44928;53.074;6.646;2023-07-31T12:43:36;2.67;;;0.93;;
59145;SDS011;44928;53.074;6.646;2023-07-31T12:46:05;3.33;;;1.05;;
59145;SDS011;44928;53.074;6.646;2023-07-31T12:48:33;4.25;;;1.10;;
59145;SDS011;44928;53.074;6.646;2023-07-31T12:50:59;6.00;;;1.17;;
59145;SDS011;44928;53.074;6.646;2023-07-31T12:53:25;3.40;;;1.20;;
59145;SDS011;44928;53.074;6.646;2023-07-31T12:55:51;4.15;;;1.10;;
59145;SDS011;44928;53.074;6.646;2023-07-31T12:58:17;3.28;;;1.10;;
59145;SDS011;44928;53.074;6.646;2023-07-31T13:00:43;4.10;;;1.10;;
59145;SDS011;44928;53.074;6.646;2023-07-31T13:03:09;5.10;;;1.23;;
59145;SDS011;44928;53.074;6.646;2023-07-31T13:05:37;5.35;;;1.10;;
59145;SDS011;44928;53.074;6.646;2023-07-31T13:08:03;5.38;;;1.30;;
59145;SDS011;44928;53.074;6.646;2023-07-31T13:10:29;4.93;;;1.20;;
59145;SDS011;44928;53.074;6.646;2023-07-31T13:12:55;3.75;;;1.17;;
59145;SDS011;44928;53.074;6.646;2023-07-31T13:15:21;8.40;;;1.63;;
59145;SDS011;44928;53.074;6.646;2023-07-31T13:17:47;5.85;;;1.40;;
59145;SDS011;44928;53.074;6.646;2023-07-31T13:20:13;6.10;;;1.60;;
59145;SDS011;44928;53.074;6.646;2023-07-31T13:22:39;5.53;;;1.65;;
59145;SDS011;44928;53.074;6.646;2023-07-31T13:25:05;6.70;;;1.70;;
59145;SDS011;44928;53.074;6.646;2023-07-31T13:27:31;7.15;;;1.92;;
59145;SDS011;44928;53.074;6.646;2023-07-31T13:29:57;7.63;;;1.63;;
59145;SDS011;44928;53.074;6.646;2023-07-31T13:32:23;8.00;;;2.08;;
59145;SDS011;44928;53.074;6.646;2023-07-31T13:34:49;7.45;;;2.17;;
59145;SDS011;44928;53.074;6.646;2023-07-31T13:37:24;11.43;;;3.13;;
59145;SDS011;44928;53.074;6.646;2023-07-31T13:39:51;10.70;;;2.28;;
59145;SDS011;44928;53.074;6.646;2023-07-31T13:42:17;10.00;;;2.35;;
59145;SDS011;44928;53.074;6.646;2023-07-31T13:44:43;12.70;;;4.18;;
59145;SDS011;44928;53.074;6.646;2023-07-31T13:47:12;8.65;;;2.72;;
59145;SDS011;44928;53.074;6.646;2023-07-31T13:49:38;9.43;;;3.00;;
59145;SDS011;44928;53.074;6.646;2023-07-31T13:52:04;9.05;;;2.90;;
59145;SDS011;44928;53.074;6.646;2023-07-31T13:54:30;10.15;;;2.95;;
59145;SDS011;44928;53.074;6.646;2023-07-31T13:56:56;8.52;;;2.60;;
59145;SDS011;44928;53.074;6.646;2023-07-31T13:59:22;13.65;;;3.60;;
59145;SDS011;44928;53.074;6.646;2023-07-31T14:01:48;10.68;;;2.90;;
59145;SDS011;44928;53.074;6.646;2023-07-31T14:04:15;11.80;;;2.85;;
59145;SDS011;44928;53.074;6.646;2023-07-31T14:06:41;8.52;;;2.90;;
59145;SDS011;44928;53.074;6.646;2023-07-31T14:09:06;9.73;;;2.50;;
59145;SDS011;44928;53.074;6.646;2023-07-31T14:11:32;7.88;;;2.22;;
59145;SDS011;44928;53.074;6.646;2023-07-31T14:13:59;11.95;;;2.42;;
59145;SDS011;44928;53.074;6.646;2023-07-31T14:16:29;10.93;;;2.63;;
59145;SDS011;44928;53.074;6.646;2023-07-31T14:18:55;9.82;;;2.60;;
59145;SDS011;44928;53.074;6.646;2023-07-31T14:21:21;10.75;;;2.90;;
59145;SDS011;44928;53.074;6.646;2023-07-31T14:23:47;10.38;;;2.70;;
59145;SDS011;44928;53.074;6.646;2023-07-31T14:26:13;10.43;;;3.03;;
59145;SDS011;44928;53.074;6.646;2023-07-31T14:28:38;12.10;;;3.17;;
59145;SDS011;44928;53.074;6.646;2023-07-31T14:31:04;11.35;;;3.25;;
59145;SDS011;44928;53.074;6.646;2023-07-31T14:33:30;14.00;;;3.13;;
59145;SDS011;44928;53.074;6.646;2023-07-31T14:35:56;13.88;;;3.00;;
59145;SDS011;44928;53.074;6.646;2023-07-31T14:38:22;9.73;;;3.10;;
59145;SDS011;44928;53.074;6.646;2023-07-31T14:40:48;14.40;;;3.20;;
59145;SDS011;44928;53.074;6.646;2023-07-31T14:43:14;10.35;;;3.10;;
59145;SDS011;44928;53.074;6.646;2023-07-31T14:45:40;11.05;;;3.10;;
59145;SDS011;44928;53.074;6.646;2023-07-31T14:48:06;11.05;;;2.95;;
59145;SDS011;44928;53.074;6.646;2023-07-31T14:50:32;11.40;;;3.75;;
59145;SDS011;44928;53.074;6.646;2023-07-31T14:52:58;10.25;;;2.78;;
59145;SDS011;44928;53.074;6.646;2023-07-31T14:55:24;10.93;;;3.08;;